createdAt,value
2023-02-13T00:00:01.796Z,8.10
2023-02-13T00:02:28.353Z,8.10
2023-02-13T00:04:55.107Z,8.00
2023-02-13T00:07:21.642Z,8.00
2023-02-13T00:09:48.229Z,8.00
2023-02-13T00:12:14.849Z,8.00
2023-02-13T00:14:41.907Z,8.00
2023-02-13T00:17:08.528Z,8.00
2023-02-13T00:19:35.192Z,8.10
2023-02-13T00:22:01.769Z,8.00
2023-02-13T00:24:28.343Z,8.00
2023-02-13T00:26:54.896Z,8.00
2023-02-13T00:29:21.486Z,8.00
2023-02-13T00:31:48.189Z,8.00
2023-02-13T00:34:14.798Z,8.00
2023-02-13T00:36:41.319Z,8.00
2023-02-13T00:39:10.925Z,8.00
2023-02-13T00:41:37.585Z,8.00
2023-02-13T00:44:04.170Z,8.00
2023-02-13T00:46:30.898Z,8.00
2023-02-13T00:48:57.480Z,8.00
2023-02-13T00:51:23.987Z,8.00
2023-02-13T00:53:50.474Z,8.00
2023-02-13T00:56:17.112Z,8.00
2023-02-13T00:58:43.773Z,8.00
2023-02-13T01:01:10.672Z,8.00
2023-02-13T01:03:37.278Z,8.00
2023-02-13T01:06:04.087Z,8.10
2023-02-13T01:08:30.685Z,8.00
2023-02-13T01:10:57.702Z,8.10
2023-02-13T01:13:24.960Z,8.00
2023-02-13T01:15:51.717Z,8.00
2023-02-13T01:18:20.043Z,8.00
2023-02-13T01:20:57.450Z,8.00
2023-02-13T01:23:24.574Z,8.00
2023-02-13T01:25:51.633Z,8.00
2023-02-13T01:28:18.280Z,8.00
2023-02-13T01:30:44.910Z,7.90
2023-02-13T01:33:11.836Z,7.90
2023-02-13T01:35:41.454Z,7.90
2023-02-13T01:38:08.005Z,7.90
2023-02-13T01:40:34.533Z,7.80
2023-02-13T01:43:01.106Z,7.90
2023-02-13T01:45:29.826Z,7.80
2023-02-13T01:48:11.188Z,7.80
2023-02-13T01:50:49.821Z,7.80
2023-02-13T01:53:22.410Z,7.70
2023-02-13T01:56:00.135Z,7.70
2023-02-13T01:58:32.360Z,7.70
2023-02-13T02:01:00.373Z,7.70
2023-02-13T02:03:35.427Z,7.60
2023-02-13T02:06:03.221Z,7.60
2023-02-13T02:08:30.851Z,7.70
2023-02-13T02:11:05.434Z,7.60
2023-02-13T02:13:32.024Z,7.60
2023-02-13T02:15:58.696Z,7.50
2023-02-13T02:18:25.215Z,7.50
2023-02-13T02:21:07.302Z,7.50
2023-02-13T02:23:52.668Z,7.50
2023-02-13T02:26:56.652Z,7.50
2023-02-13T02:29:47.613Z,7.50
2023-02-13T02:32:31.884Z,7.50
2023-02-13T02:35:28.152Z,7.50
2023-02-13T02:38:03.362Z,7.50
2023-02-13T02:40:56.524Z,7.40
2023-02-13T02:43:34.026Z,7.40
2023-02-13T02:46:06.883Z,7.40
2023-02-13T02:49:14.439Z,7.30
2023-02-13T02:52:15.304Z,7.10
2023-02-13T02:55:06.689Z,7.10
2023-02-13T02:57:57.385Z,7.00
2023-02-13T03:00:44.602Z,7.00
2023-02-13T03:03:36.064Z,6.90
2023-02-13T03:06:11.821Z,6.80
2023-02-13T03:09:09.708Z,6.70
2023-02-13T03:12:16.156Z,6.70
2023-02-13T03:14:43.121Z,6.60
2023-02-13T03:17:32.889Z,6.50
2023-02-13T03:20:42.108Z,6.50
2023-02-13T03:23:40.881Z,6.40
2023-02-13T03:26:32.990Z,6.30
2023-02-13T03:29:58.778Z,6.30
2023-02-13T03:32:37.096Z,6.20
2023-02-13T03:35:46.501Z,6.10
2023-02-13T03:38:29.983Z,6.00
2023-02-13T03:41:18.290Z,5.90
2023-02-13T03:44:10.761Z,5.80
2023-02-13T03:46:42.059Z,5.70
2023-02-13T03:49:35.886Z,5.70
2023-02-13T03:52:10.756Z,5.80
2023-02-13T03:55:04.547Z,5.60
2023-02-13T03:57:52.411Z,5.50
2023-02-13T04:00:20.780Z,5.50
2023-02-13T04:03:15.489Z,5.40
2023-02-13T04:05:49.462Z,5.30
2023-02-13T04:08:16.179Z,5.20
2023-02-13T04:11:13.796Z,5.20
2023-02-13T04:13:49.700Z,5.10
2023-02-13T04:16:21.331Z,5.20
2023-02-13T04:18:49.948Z,5.10
2023-02-13T04:21:16.483Z,4.90
2023-02-13T04:23:43.008Z,4.80
2023-02-13T04:26:17.515Z,4.80
2023-02-13T04:28:44.239Z,4.70
2023-02-13T04:31:10.913Z,4.70
2023-02-13T04:33:37.481Z,4.60
2023-02-13T04:36:05.339Z,4.70
2023-02-13T04:38:31.934Z,4.70
2023-02-13T04:40:58.787Z,4.60
2023-02-13T04:43:25.590Z,4.60
2023-02-13T04:45:52.458Z,4.60
2023-02-13T04:48:19.005Z,4.50
2023-02-13T04:50:45.632Z,4.40
2023-02-13T04:53:12.126Z,4.30
2023-02-13T04:55:38.778Z,4.30
2023-02-13T04:58:05.610Z,4.20
2023-02-13T05:00:32.208Z,4.20
2023-02-13T05:03:09.998Z,4.10
2023-02-13T05:05:37.157Z,4.00
2023-02-13T05:08:04.366Z,4.00
2023-02-13T05:10:31.315Z,4.00
2023-02-13T05:12:57.964Z,4.10
2023-02-13T05:15:24.555Z,4.10
2023-02-13T05:17:51.449Z,4.00
2023-02-13T05:20:18.249Z,3.90
2023-02-13T05:23:08.519Z,3.90
2023-02-13T05:25:36.941Z,3.80
2023-02-13T05:28:03.800Z,3.90
2023-02-13T05:30:30.873Z,3.80
2023-02-13T05:32:57.465Z,3.90
2023-02-13T05:35:24.868Z,3.70
2023-02-13T05:37:51.414Z,3.60
2023-02-13T05:40:18.163Z,3.50
2023-02-13T05:42:44.691Z,3.40
2023-02-13T05:45:11.349Z,3.40
2023-02-13T05:47:37.930Z,3.40
2023-02-13T05:50:05.092Z,3.50
2023-02-13T05:52:31.749Z,3.40
2023-02-13T05:54:58.298Z,3.30
2023-02-13T05:57:24.829Z,3.40
2023-02-13T05:59:51.434Z,3.30
2023-02-13T06:02:18.040Z,3.30
2023-02-13T06:04:44.676Z,3.20
2023-02-13T06:07:11.422Z,3.20
2023-02-13T06:09:38.019Z,3.20
2023-02-13T06:12:04.817Z,3.20
2023-02-13T06:14:31.376Z,3.20
2023-02-13T06:16:57.901Z,3.20
2023-02-13T06:19:24.497Z,3.20
2023-02-13T06:21:51.076Z,3.20
2023-02-13T06:24:17.794Z,3.30
2023-02-13T06:26:44.446Z,3.20
2023-02-13T06:29:12.661Z,3.10
2023-02-13T06:31:39.566Z,3.10
2023-02-13T06:34:06.226Z,3.20
2023-02-13T06:36:32.878Z,3.20
2023-02-13T06:38:59.465Z,3.20
2023-02-13T06:41:26.023Z,3.30
2023-02-13T06:43:52.528Z,3.20
2023-02-13T06:46:19.239Z,3.20
2023-02-13T06:48:45.841Z,3.10
2023-02-13T06:51:12.454Z,3.20
2023-02-13T06:53:39.637Z,3.20
2023-02-13T06:56:07.014Z,3.20
2023-02-13T06:58:34.174Z,3.30
2023-02-13T07:01:01.032Z,3.40
2023-02-13T07:03:27.773Z,3.40
2023-02-13T07:05:54.371Z,3.40
2023-02-13T07:08:20.933Z,3.40
2023-02-13T07:10:47.526Z,3.50
2023-02-13T07:13:14.761Z,3.30
2023-02-13T07:15:41.870Z,3.40
2023-02-13T07:18:09.060Z,3.40
2023-02-13T07:20:35.680Z,3.50
2023-02-13T07:23:04.240Z,3.50
2023-02-13T07:25:31.148Z,3.60
2023-02-13T07:28:04.965Z,3.60
2023-02-13T07:30:32.970Z,3.50
2023-02-13T07:33:03.654Z,3.50
2023-02-13T07:35:30.677Z,3.60
2023-02-13T07:37:57.353Z,3.70
2023-02-13T07:40:23.863Z,3.90
2023-02-13T07:42:50.507Z,3.90
2023-02-13T07:45:17.210Z,4.00
2023-02-13T07:47:43.846Z,4.00
2023-02-13T07:50:11.143Z,3.90
2023-02-13T07:52:38.112Z,4.00
2023-02-13T07:55:05.552Z,4.00
2023-02-13T07:57:32.195Z,4.10
2023-02-13T07:59:58.755Z,4.10
2023-02-13T08:02:25.413Z,4.10
2023-02-13T08:04:54.802Z,4.20
2023-02-13T08:07:21.352Z,4.30
2023-02-13T08:10:06.486Z,4.40
2023-02-13T08:12:35.617Z,4.50
2023-02-13T08:15:02.314Z,4.60
2023-02-13T08:17:28.853Z,4.70
2023-02-13T08:19:55.513Z,4.70
2023-02-13T08:22:22.166Z,4.70
2023-02-13T08:24:48.875Z,4.70
2023-02-13T08:27:16.106Z,4.90
2023-02-13T08:29:42.693Z,4.90
2023-02-13T08:32:09.708Z,5.00
2023-02-13T08:34:36.398Z,5.10
2023-02-13T08:37:03.613Z,5.20
2023-02-13T08:39:30.230Z,5.40
2023-02-13T08:41:57.064Z,5.50
2023-02-13T08:44:23.638Z,5.60
2023-02-13T08:46:50.278Z,5.60
2023-02-13T08:49:16.964Z,5.70
2023-02-13T08:51:43.687Z,5.70
2023-02-13T08:54:10.353Z,5.80
2023-02-13T08:56:36.884Z,5.90
2023-02-13T08:59:03.489Z,6.00
2023-02-13T09:01:30.083Z,6.10
2023-02-13T09:03:56.673Z,6.10
2023-02-13T09:06:26.048Z,6.20
2023-02-13T09:08:53.251Z,6.40
2023-02-13T09:11:22.740Z,6.50
2023-02-13T09:13:52.506Z,6.50
2023-02-13T09:16:19.073Z,6.60
2023-02-13T09:18:50.485Z,6.70
2023-02-13T09:21:18.799Z,6.80
2023-02-13T09:23:45.455Z,6.90
2023-02-13T09:26:14.164Z,7.10
2023-02-13T09:28:41.168Z,7.20
2023-02-13T09:31:08.881Z,7.20
2023-02-13T09:33:36.172Z,7.20
2023-02-13T09:36:07.382Z,7.30
2023-02-13T09:38:34.784Z,7.40
2023-02-13T09:41:09.005Z,7.60
2023-02-13T09:43:37.653Z,7.70
2023-02-13T09:46:18.595Z,7.60
2023-02-13T09:48:49.247Z,7.70
2023-02-13T09:51:21.305Z,7.90
2023-02-13T09:53:55.646Z,8.00
2023-02-13T09:57:04.907Z,8.10
2023-02-13T09:59:58.521Z,8.10
2023-02-13T10:02:42.702Z,7.90
2023-02-13T10:05:44.224Z,8.10
2023-02-13T10:08:23.804Z,8.30
2023-02-13T10:10:52.444Z,8.30
2023-02-13T10:13:35.626Z,8.60
2023-02-13T10:16:14.314Z,8.50
2023-02-13T10:18:52.055Z,8.60
2023-02-13T10:21:26.795Z,8.00
2023-02-13T10:24:02.742Z,7.80
2023-02-13T10:26:46.394Z,8.10
2023-02-13T10:29:38.630Z,8.30
2023-02-13T10:32:09.451Z,8.50
2023-02-13T10:34:44.468Z,8.50
2023-02-13T10:37:17.534Z,8.50
2023-02-13T10:39:47.363Z,8.70
2023-02-13T10:42:36.558Z,8.80
2023-02-13T10:45:40.164Z,8.90
2023-02-13T10:48:15.828Z,9.00
2023-02-13T10:50:56.177Z,9.10
2023-02-13T10:54:01.617Z,9.20
2023-02-13T10:56:56.293Z,9.10
2023-02-13T10:59:43.216Z,9.10
2023-02-13T11:02:21.479Z,9.20
2023-02-13T11:04:49.263Z,9.10
2023-02-13T11:07:24.033Z,9.20
2023-02-13T11:09:53.115Z,9.20
2023-02-13T11:12:29.100Z,9.40
2023-02-13T11:15:07.563Z,9.50
2023-02-13T11:17:40.717Z,9.70
2023-02-13T11:20:25.053Z,9.80
2023-02-13T11:22:51.829Z,10.00
2023-02-13T11:25:25.879Z,10.10
2023-02-13T11:28:09.433Z,10.40
2023-02-13T11:30:38.839Z,10.60
2023-02-13T11:33:21.008Z,12.00
2023-02-13T11:35:48.047Z,13.10
2023-02-13T11:38:18.153Z,12.80
2023-02-13T11:40:47.885Z,12.20
2023-02-13T11:43:35.193Z,11.80
2023-02-13T11:46:08.387Z,11.60
2023-02-13T11:48:35.613Z,11.70
2023-02-13T11:51:02.848Z,11.60
2023-02-13T11:53:38.076Z,11.70
2023-02-13T11:56:09.575Z,13.10
2023-02-13T11:58:36.648Z,14.30
2023-02-13T12:01:19.536Z,15.60
2023-02-13T12:04:03.451Z,15.40
2023-02-13T12:06:31.140Z,15.40
2023-02-13T12:08:58.214Z,14.80
2023-02-13T12:11:45.987Z,14.10
2023-02-13T12:14:19.524Z,13.70
2023-02-13T12:17:21.982Z,13.50
2023-02-13T12:19:56.417Z,13.10
2023-02-13T12:22:39.861Z,12.60
2023-02-13T12:25:15.752Z,12.50
2023-02-13T12:27:57.838Z,12.30
2023-02-13T12:30:54.140Z,12.30
2023-02-13T12:33:51.747Z,12.60
2023-02-13T12:36:24.256Z,12.80
2023-02-13T12:38:59.668Z,12.80
2023-02-13T12:41:41.278Z,12.80
2023-02-13T12:44:10.604Z,12.90
2023-02-13T12:46:56.202Z,12.90
2023-02-13T12:49:25.472Z,13.10
2023-02-13T12:52:19.843Z,13.30
2023-02-13T12:55:09.681Z,13.60
2023-02-13T12:58:03.300Z,13.80
2023-02-13T13:00:48.285Z,13.90
2023-02-13T13:03:54.853Z,14.10
2023-02-13T13:06:40.767Z,14.70
2023-02-13T13:09:28.253Z,14.70
2023-02-13T13:12:13.461Z,14.50
2023-02-13T13:15:16.377Z,14.50
2023-02-13T13:18:10.001Z,14.60
2023-02-13T13:20:48.989Z,14.40
2023-02-13T13:23:24.875Z,14.60
2023-02-13T13:26:15.723Z,14.60
2023-02-13T13:28:46.393Z,14.60
2023-02-13T13:31:14.727Z,14.50
2023-02-13T13:33:44.095Z,14.40
2023-02-13T13:36:25.147Z,14.30
2023-02-13T13:39:05.472Z,14.40
2023-02-13T13:41:35.096Z,14.30
2023-02-13T13:44:33.582Z,14.60
2023-02-13T13:47:29.048Z,15.20
2023-02-13T13:50:00.763Z,15.40
2023-02-13T13:52:28.307Z,15.00
2023-02-13T13:54:56.695Z,15.10
2023-02-13T13:57:27.750Z,15.20
2023-02-13T14:00:21.970Z,14.90
2023-02-13T14:03:22.552Z,15.00
2023-02-13T14:06:09.541Z,15.10
2023-02-13T14:08:41.955Z,15.00
2023-02-13T14:11:29.003Z,14.70
2023-02-13T14:13:55.634Z,14.80
2023-02-13T14:16:42.764Z,14.90
2023-02-13T14:19:31.129Z,14.80
2023-02-13T14:22:19.795Z,14.80
2023-02-13T14:25:00.465Z,15.00
2023-02-13T14:27:37.330Z,15.10
2023-02-13T14:30:06.399Z,14.70
2023-02-13T14:32:38.967Z,14.50
2023-02-13T14:35:25.907Z,14.40
2023-02-13T14:37:57.486Z,14.10
2023-02-13T14:40:27.033Z,14.00
2023-02-13T14:42:58.689Z,14.20
2023-02-13T14:45:29.340Z,13.90
2023-02-13T14:47:58.252Z,13.90
2023-02-13T14:50:43.448Z,13.90
2023-02-13T14:53:25.011Z,13.80
2023-02-13T14:55:57.944Z,13.90
2023-02-13T14:58:33.958Z,13.70
2023-02-13T15:01:00.657Z,13.40
2023-02-13T15:04:05.488Z,13.90
2023-02-13T15:06:37.520Z,14.10
2023-02-13T15:09:15.119Z,14.00
2023-02-13T15:11:43.560Z,13.90
2023-02-13T15:14:17.621Z,13.70
2023-02-13T15:16:48.303Z,13.60
2023-02-13T15:19:17.884Z,13.50
2023-02-13T15:21:56.900Z,13.50
2023-02-13T15:24:24.528Z,13.30
2023-02-13T15:27:02.115Z,13.20
2023-02-13T15:29:40.957Z,13.30
2023-02-13T15:32:18.367Z,13.30
2023-02-13T15:34:47.658Z,13.20
2023-02-13T15:37:25.422Z,13.10
2023-02-13T15:39:52.044Z,13.00
2023-02-13T15:42:18.944Z,12.90
2023-02-13T15:44:48.775Z,12.90
2023-02-13T15:47:27.396Z,12.70
2023-02-13T15:49:54.465Z,12.50
2023-02-13T15:52:34.180Z,12.40
2023-02-13T15:55:01.129Z,12.30
2023-02-13T15:57:28.564Z,12.10
2023-02-13T15:59:57.508Z,11.90
2023-02-13T16:02:33.569Z,11.80
2023-02-13T16:05:02.036Z,11.70
2023-02-13T16:07:30.464Z,11.60
2023-02-13T16:10:37.540Z,11.60
2023-02-13T16:13:15.819Z,11.50
2023-02-13T16:15:43.383Z,11.40
2023-02-13T16:18:19.488Z,11.40
2023-02-13T16:20:46.284Z,11.30
2023-02-13T16:23:19.860Z,11.20
2023-02-13T16:25:48.198Z,11.00
2023-02-13T16:28:17.845Z,10.90
2023-02-13T16:30:47.141Z,10.80
2023-02-13T16:33:16.737Z,10.60
2023-02-13T16:35:49.156Z,10.50
2023-02-13T16:38:35.890Z,10.50
2023-02-13T16:41:17.448Z,10.40
2023-02-13T16:43:54.040Z,10.30
2023-02-13T16:46:29.622Z,10.20
2023-02-13T16:48:56.157Z,10.10
2023-02-13T16:51:47.062Z,10.10
2023-02-13T16:54:39.192Z,10.00
2023-02-13T16:57:13.067Z,9.90
2023-02-13T16:59:54.138Z,9.80
2023-02-13T17:02:34.039Z,9.70
2023-02-13T17:05:09.666Z,9.70
2023-02-13T17:07:43.509Z,9.60
2023-02-13T17:10:34.411Z,9.60
2023-02-13T17:13:19.013Z,9.50
2023-02-13T17:15:47.721Z,9.50
2023-02-13T17:18:14.352Z,9.40
2023-02-13T17:20:42.889Z,9.40
2023-02-13T17:23:17.564Z,9.30
2023-02-13T17:25:46.133Z,9.30
2023-02-13T17:28:20.770Z,9.20
2023-02-13T17:30:51.839Z,9.10
2023-02-13T17:33:22.781Z,9.10
2023-02-13T17:35:49.894Z,9.00
2023-02-13T17:38:16.858Z,9.00
2023-02-13T17:40:44.612Z,8.90
2023-02-13T17:43:12.456Z,8.90
2023-02-13T17:45:39.766Z,8.80
2023-02-13T17:48:06.465Z,8.90
2023-02-13T17:50:34.826Z,8.80
2023-02-13T17:53:06.620Z,8.80
2023-02-13T17:55:34.783Z,8.70
2023-02-13T17:58:01.733Z,8.60
2023-02-13T18:00:31.032Z,8.60
2023-02-13T18:02:59.301Z,8.50
2023-02-13T18:05:27.480Z,8.40
2023-02-13T18:07:54.461Z,8.40
2023-02-13T18:10:26.544Z,8.40
2023-02-13T18:12:54.615Z,8.20
2023-02-13T18:15:21.579Z,8.20
2023-02-13T18:17:48.418Z,8.20
2023-02-13T18:20:17.812Z,8.20
2023-02-13T18:22:44.800Z,8.20
2023-02-13T18:25:13.926Z,8.10
2023-02-13T18:27:40.500Z,8.10
2023-02-13T18:30:08.208Z,8.10
2023-02-13T18:32:34.968Z,8.10
2023-02-13T18:35:02.505Z,8.00
2023-02-13T18:37:29.959Z,7.90
2023-02-13T18:39:57.105Z,7.80
2023-02-13T18:42:23.762Z,7.80
2023-02-13T18:44:50.479Z,7.70
2023-02-13T18:47:17.403Z,7.60
2023-02-13T18:49:46.304Z,7.60
2023-02-13T18:52:13.139Z,7.50
2023-02-13T18:54:39.757Z,7.50
2023-02-13T18:57:06.907Z,7.40
2023-02-13T18:59:33.549Z,7.40
2023-02-13T19:02:00.957Z,7.40
2023-02-13T19:04:28.701Z,7.40
2023-02-13T19:06:55.282Z,7.30
2023-02-13T19:09:21.885Z,7.30
2023-02-13T19:11:48.579Z,7.30
2023-02-13T19:14:15.597Z,7.30
2023-02-13T19:16:42.735Z,7.20
2023-02-13T19:19:10.003Z,7.20
2023-02-13T19:21:38.451Z,7.20
2023-02-13T19:24:08.603Z,7.10
2023-02-13T19:26:35.489Z,7.20
2023-02-13T19:29:02.099Z,7.10
2023-02-13T19:31:30.902Z,7.00
2023-02-13T19:33:57.670Z,6.90
2023-02-13T19:36:26.015Z,6.90
2023-02-13T19:39:01.134Z,6.90
2023-02-13T19:41:28.914Z,6.90
2023-02-13T19:43:56.272Z,6.80
2023-02-13T19:46:25.657Z,6.80
2023-02-13T19:48:52.801Z,6.90
2023-02-13T19:51:24.003Z,6.80
2023-02-13T19:53:56.813Z,6.70
2023-02-13T19:56:24.408Z,6.70
2023-02-13T19:58:51.315Z,6.70
2023-02-13T20:01:20.589Z,6.70
2023-02-13T20:03:47.947Z,6.50
2023-02-13T20:06:23.924Z,6.20
2023-02-13T20:08:51.074Z,6.20
2023-02-13T20:11:19.614Z,6.30
2023-02-13T20:13:46.292Z,6.10
2023-02-13T20:16:15.249Z,6.00
2023-02-13T20:18:42.565Z,6.00
2023-02-13T20:21:14.296Z,5.90
2023-02-13T20:23:41.595Z,5.90
2023-02-13T20:26:13.924Z,5.70
2023-02-13T20:28:41.610Z,5.70
2023-02-13T20:31:13.539Z,5.70
2023-02-13T20:33:41.054Z,5.70
2023-02-13T20:36:12.680Z,5.70
2023-02-13T20:38:39.379Z,5.50
2023-02-13T20:41:09.015Z,5.40
2023-02-13T20:43:35.776Z,5.40
2023-02-13T20:46:02.405Z,5.40
2023-02-13T20:48:28.992Z,5.20
2023-02-13T20:51:05.786Z,5.30
2023-02-13T20:53:32.660Z,5.30
2023-02-13T20:56:08.143Z,5.30
2023-02-13T20:58:34.713Z,5.20
2023-02-13T21:01:01.718Z,5.10
2023-02-13T21:03:28.559Z,5.00
2023-02-13T21:05:55.059Z,4.90
2023-02-13T21:08:21.655Z,5.00
2023-02-13T21:10:48.279Z,5.10
2023-02-13T21:13:14.784Z,5.10
2023-02-13T21:15:43.024Z,5.10
2023-02-13T21:18:09.589Z,5.00
2023-02-13T21:20:36.472Z,5.00
2023-02-13T21:23:05.247Z,5.00
2023-02-13T21:25:33.195Z,4.90
2023-02-13T21:27:59.879Z,4.90
2023-02-13T21:30:26.616Z,4.80
2023-02-13T21:32:53.260Z,4.80
2023-02-13T21:35:19.771Z,4.80
2023-02-13T21:37:46.323Z,4.80
2023-02-13T21:40:12.988Z,4.70
2023-02-13T21:42:39.649Z,4.60
2023-02-13T21:45:06.452Z,4.70
2023-02-13T21:47:33.265Z,4.70
2023-02-13T21:49:59.825Z,4.60
2023-02-13T21:52:26.516Z,4.50
2023-02-13T21:54:53.120Z,4.40
2023-02-13T21:57:19.659Z,4.50
2023-02-13T21:59:46.318Z,4.40
2023-02-13T22:02:13.079Z,4.40
2023-02-13T22:04:41.951Z,4.50
2023-02-13T22:07:08.594Z,4.30
2023-02-13T22:09:35.287Z,4.30
2023-02-13T22:12:02.079Z,4.10
2023-02-13T22:14:28.614Z,4.20
2023-02-13T22:16:55.208Z,4.00
2023-02-13T22:19:21.844Z,4.00
2023-02-13T22:21:48.615Z,4.00
2023-02-13T22:24:15.410Z,4.00
2023-02-13T22:26:45.102Z,4.10
2023-02-13T22:29:13.997Z,4.10
2023-02-13T22:31:41.287Z,4.00
2023-02-13T22:34:08.185Z,4.00
2023-02-13T22:36:38.729Z,4.00
2023-02-13T22:39:06.183Z,4.00
2023-02-13T22:41:32.865Z,3.90
2023-02-13T22:43:59.398Z,3.80
2023-02-13T22:46:33.408Z,3.50
2023-02-13T22:49:00.315Z,3.60
2023-02-13T22:51:35.670Z,3.70
2023-02-13T22:54:03.542Z,3.70
2023-02-13T22:56:31.024Z,3.60
2023-02-13T22:58:58.214Z,3.60
2023-02-13T23:01:26.701Z,3.50
2023-02-13T23:03:53.734Z,3.50
2023-02-13T23:06:21.634Z,3.50
2023-02-13T23:08:53.282Z,3.50
2023-02-13T23:11:44.004Z,3.30
2023-02-13T23:14:11.429Z,3.30
2023-02-13T23:16:58.379Z,3.30
2023-02-13T23:19:27.172Z,3.30
2023-02-13T23:21:53.705Z,3.20
2023-02-13T23:24:20.287Z,3.10
2023-02-13T23:26:46.855Z,3.00
2023-02-13T23:29:13.472Z,3.00
2023-02-13T23:31:40.070Z,3.10
2023-02-13T23:34:06.932Z,3.10
2023-02-13T23:36:34.964Z,3.10
2023-02-13T23:39:01.591Z,3.10
2023-02-13T23:41:28.787Z,2.90
2023-02-13T23:43:55.539Z,2.90
2023-02-13T23:46:22.173Z,2.90
2023-02-13T23:48:48.688Z,3.00
2023-02-13T23:51:15.436Z,3.00
2023-02-13T23:53:41.951Z,2.90
2023-02-13T23:56:08.536Z,2.90
2023-02-13T23:58:35.414Z,2.90
